createdAt,value
2022-12-25T00:04:48.757Z,18.31
2022-12-25T00:09:50.995Z,18.28
2022-12-25T00:14:53.250Z,18.32
2022-12-25T00:19:56.666Z,18.32
2022-12-25T00:24:58.837Z,18.32
2022-12-25T00:30:01.835Z,18.30
2022-12-25T00:35:05.691Z,18.29
2022-12-25T00:40:08.038Z,18.29
2022-12-25T00:45:10.742Z,18.31
2022-12-25T00:50:12.985Z,18.32
2022-12-25T00:55:15.299Z,18.29
2022-12-25T01:00:17.534Z,18.28
2022-12-25T01:05:19.614Z,18.29
2022-12-25T01:10:24.678Z,18.29
2022-12-25T01:15:26.874Z,18.30
2022-12-25T01:20:29.062Z,18.29
2022-12-25T01:25:31.196Z,18.28
2022-12-25T01:30:33.959Z,18.28
2022-12-25T01:35:39.714Z,18.27
2022-12-25T01:40:41.904Z,18.20
2022-12-25T01:45:48.702Z,18.27
2022-12-25T01:51:01.810Z,18.26
2022-12-25T01:56:08.046Z,18.26
2022-12-25T02:01:11.034Z,18.28
2022-12-25T02:06:13.208Z,18.28
2022-12-25T02:11:35.305Z,18.27
2022-12-25T02:16:57.414Z,18.26
2022-12-25T02:22:23.276Z,18.25
2022-12-25T02:27:42.605Z,18.25
2022-12-25T02:33:15.927Z,18.24
2022-12-25T02:38:27.405Z,18.23
2022-12-25T02:43:59.772Z,18.25
2022-12-25T02:49:27.895Z,18.23
2022-12-25T02:54:59.342Z,18.24
2022-12-25T03:00:22.432Z,18.24
2022-12-25T03:06:02.128Z,18.26
2022-12-25T03:11:27.639Z,18.26
2022-12-25T03:16:49.257Z,18.24
2022-12-25T03:22:11.584Z,18.24
2022-12-25T03:27:13.800Z,18.23
2022-12-25T03:32:22.984Z,18.23
2022-12-25T03:38:12.608Z,18.21
2022-12-25T03:43:37.355Z,18.21
2022-12-25T03:49:02.428Z,18.22
2022-12-25T03:54:27.688Z,18.21
2022-12-25T03:59:48.384Z,18.21
2022-12-25T04:05:22.879Z,18.22
2022-12-25T04:10:43.914Z,18.22
2022-12-25T04:16:04.339Z,18.22
2022-12-25T04:21:24.885Z,18.21
2022-12-25T04:26:45.579Z,18.14
2022-12-25T04:32:06.150Z,18.21
2022-12-25T04:37:08.266Z,18.21
2022-12-25T04:42:10.686Z,18.21
2022-12-25T04:47:13.296Z,18.21
2022-12-25T04:52:15.580Z,18.21
2022-12-25T04:57:17.891Z,18.13
2022-12-25T05:02:20.268Z,18.20
2022-12-25T05:07:22.466Z,18.20
2022-12-25T05:12:24.726Z,18.21
2022-12-25T05:17:26.993Z,18.22
2022-12-25T05:22:29.201Z,18.23
2022-12-25T05:27:31.455Z,18.22
2022-12-25T05:32:33.782Z,18.21
2022-12-25T05:37:37.019Z,18.21
2022-12-25T05:42:39.221Z,18.20
2022-12-25T05:47:41.730Z,18.20
2022-12-25T05:52:43.895Z,18.21
2022-12-25T05:57:46.065Z,18.22
2022-12-25T06:02:48.409Z,18.22
2022-12-25T06:07:50.753Z,18.22
2022-12-25T06:12:52.933Z,18.20
2022-12-25T06:17:55.072Z,18.19
2022-12-25T06:22:57.477Z,18.18
2022-12-25T06:27:59.591Z,18.13
2022-12-25T06:33:01.784Z,18.21
2022-12-25T06:38:03.994Z,18.22
2022-12-25T06:43:06.127Z,18.19
2022-12-25T06:48:08.233Z,18.18
2022-12-25T06:53:10.385Z,18.20
2022-12-25T06:58:12.948Z,18.21
2022-12-25T07:03:20.322Z,18.22
2022-12-25T07:08:22.518Z,18.19
2022-12-25T07:13:26.171Z,18.18
2022-12-25T07:18:29.135Z,18.16
2022-12-25T07:23:31.329Z,18.20
2022-12-25T07:28:34.489Z,18.21
2022-12-25T07:33:37.075Z,18.20
2022-12-25T07:38:39.185Z,18.17
2022-12-25T07:43:41.822Z,18.18
2022-12-25T07:48:43.980Z,18.17
2022-12-25T07:53:46.597Z,18.17
2022-12-25T07:58:49.160Z,18.17
2022-12-25T08:03:53.485Z,18.17
2022-12-25T08:08:57.043Z,18.16
2022-12-25T08:13:59.322Z,18.16
2022-12-25T08:19:01.656Z,18.16
2022-12-25T08:24:04.008Z,18.17
2022-12-25T08:29:06.106Z,18.17
2022-12-25T08:34:08.257Z,18.15
2022-12-25T08:39:10.591Z,18.17
2022-12-25T08:44:13.208Z,18.18
2022-12-25T08:49:16.623Z,18.21
2022-12-25T08:54:18.722Z,18.17
2022-12-25T09:00:16.745Z,18.17
2022-12-25T09:05:18.714Z,18.15
2022-12-25T09:10:21.384Z,18.18
2022-12-25T09:15:23.507Z,18.20
2022-12-25T09:20:25.757Z,18.19
2022-12-25T09:25:27.894Z,18.16
2022-12-25T09:30:30.072Z,18.16
2022-12-25T09:35:32.289Z,18.15
2022-12-25T09:40:35.020Z,18.15
2022-12-25T09:45:38.977Z,18.15
2022-12-25T09:50:53.442Z,18.17
2022-12-25T09:56:04.617Z,18.17
2022-12-25T10:01:20.005Z,18.17
2022-12-25T10:07:10.209Z,18.16
2022-12-25T10:12:35.793Z,18.15
2022-12-25T10:17:49.907Z,18.18
2022-12-25T10:22:57.523Z,18.18
2022-12-25T10:28:10.594Z,18.18
2022-12-25T10:33:17.195Z,18.16
2022-12-25T10:38:20.543Z,18.16
2022-12-25T10:43:49.202Z,18.15
2022-12-25T10:48:55.862Z,18.17
2022-12-25T10:53:58.530Z,18.16
2022-12-25T10:59:10.591Z,18.16
2022-12-25T11:04:35.276Z,18.15
2022-12-25T11:09:37.460Z,18.17
2022-12-25T11:14:39.646Z,18.17
2022-12-25T11:19:52.528Z,18.16
2022-12-25T11:24:55.375Z,18.19
2022-12-25T11:30:03.460Z,18.19
2022-12-25T11:35:13.476Z,18.21
2022-12-25T11:40:28.022Z,18.18
2022-12-25T11:45:38.786Z,18.17
2022-12-25T11:50:57.649Z,18.16
2022-12-25T11:56:08.725Z,18.18
2022-12-25T12:01:20.027Z,18.18
2022-12-25T12:06:40.655Z,18.20
2022-12-25T12:11:49.982Z,18.21
2022-12-25T12:16:52.349Z,18.22
2022-12-25T12:22:00.491Z,18.20
2022-12-25T12:27:06.816Z,18.21
2022-12-25T12:32:43.378Z,18.18
2022-12-25T12:37:50.307Z,18.19
2022-12-25T12:42:52.726Z,18.21
2022-12-25T12:47:55.369Z,18.21
2022-12-25T12:52:58.739Z,18.21
2022-12-25T12:58:06.379Z,18.22
2022-12-25T13:03:32.342Z,18.24
2022-12-25T13:09:09.922Z,18.25
2022-12-25T13:14:21.899Z,18.23
2022-12-25T13:19:27.811Z,18.23
2022-12-25T13:24:32.721Z,18.23
2022-12-25T13:29:38.232Z,18.25
2022-12-25T13:34:42.830Z,18.27
2022-12-25T13:39:55.235Z,18.24
2022-12-25T13:45:06.557Z,18.24
2022-12-25T13:50:21.413Z,18.24
2022-12-25T13:55:29.225Z,18.26
2022-12-25T14:00:37.068Z,18.24
2022-12-25T14:05:42.772Z,18.24
2022-12-25T14:10:50.644Z,18.26
2022-12-25T14:15:55.899Z,18.25
2022-12-25T14:21:01.921Z,18.25
2022-12-25T14:26:04.180Z,18.26
2022-12-25T14:31:06.350Z,18.25
2022-12-25T14:36:13.032Z,18.26
2022-12-25T14:41:24.187Z,18.26
2022-12-25T14:46:30.945Z,18.26
2022-12-25T14:51:35.582Z,18.27
2022-12-25T14:56:39.461Z,18.29
2022-12-25T15:01:42.253Z,18.29
2022-12-25T15:07:07.470Z,18.30
2022-12-25T15:12:09.946Z,18.29
2022-12-25T15:17:25.277Z,18.29
2022-12-25T15:22:37.470Z,18.30
2022-12-25T15:27:49.771Z,18.30
2022-12-25T15:32:52.060Z,18.31
2022-12-25T15:37:54.338Z,18.29
2022-12-25T15:42:56.884Z,18.30
2022-12-25T15:47:59.398Z,18.30
2022-12-25T15:53:01.534Z,18.31
2022-12-25T15:58:03.678Z,18.32
2022-12-25T16:03:06.072Z,18.30
2022-12-25T16:08:09.395Z,18.29
2022-12-25T16:13:11.610Z,18.31
2022-12-25T16:18:13.811Z,18.32
2022-12-25T16:23:16.103Z,18.32
2022-12-25T16:28:18.334Z,18.30
2022-12-25T16:33:20.441Z,18.31
2022-12-25T16:38:22.615Z,18.31
2022-12-25T16:43:25.484Z,18.29
2022-12-25T16:48:27.662Z,18.30
2022-12-25T16:53:30.364Z,18.29
2022-12-25T16:58:32.713Z,18.30
2022-12-25T17:03:35.583Z,18.30
2022-12-25T17:08:37.899Z,18.30
2022-12-25T17:13:40.083Z,18.33
2022-12-25T17:18:42.841Z,18.32
2022-12-25T17:23:45.348Z,18.32
2022-12-25T17:28:47.714Z,18.31
2022-12-25T17:33:49.901Z,18.31
2022-12-25T17:38:52.162Z,18.30
2022-12-25T17:43:54.561Z,18.31
2022-12-25T17:48:58.523Z,18.29
2022-12-25T17:54:05.701Z,18.31
2022-12-25T17:59:10.809Z,18.32
2022-12-25T18:04:13.231Z,18.31
2022-12-25T18:09:15.629Z,18.33
2022-12-25T18:14:17.933Z,18.31
2022-12-25T18:19:20.068Z,18.29
2022-12-25T18:24:22.225Z,18.30
2022-12-25T18:29:24.298Z,18.30
2022-12-25T18:34:26.463Z,18.30
2022-12-25T18:39:33.142Z,18.30
2022-12-25T18:44:35.394Z,18.33
2022-12-25T18:49:37.608Z,18.26
2022-12-25T18:54:39.780Z,18.31
2022-12-25T18:59:42.282Z,18.24
2022-12-25T19:04:44.695Z,18.30
2022-12-25T19:09:46.961Z,18.29
2022-12-25T19:14:49.383Z,18.23
2022-12-25T19:19:51.596Z,18.30
2022-12-25T19:24:53.713Z,18.29
2022-12-25T19:29:55.883Z,18.30
2022-12-25T19:34:58.051Z,18.30
2022-12-25T19:40:00.254Z,18.30
2022-12-25T19:45:03.344Z,18.30
2022-12-25T19:50:05.917Z,18.30
2022-12-25T19:55:08.506Z,18.30
2022-12-25T20:00:10.953Z,18.31
2022-12-25T20:05:15.733Z,18.32
2022-12-25T20:10:17.870Z,18.31
2022-12-25T20:15:20.452Z,18.28
2022-12-25T20:20:22.547Z,18.30
2022-12-25T20:25:25.693Z,18.31
2022-12-25T20:30:28.724Z,18.26
2022-12-25T20:35:31.115Z,18.31
2022-12-25T20:40:52.882Z,18.29
2022-12-25T20:45:55.639Z,18.31
2022-12-25T20:51:12.859Z,18.31
2022-12-25T20:56:17.438Z,18.32
2022-12-25T21:01:19.591Z,18.30
2022-12-25T21:06:22.909Z,18.29
2022-12-25T21:11:25.121Z,18.28
2022-12-25T21:16:27.385Z,18.29
2022-12-25T21:21:29.467Z,18.29
2022-12-25T21:26:34.642Z,18.29
2022-12-25T21:31:56.710Z,18.29
2022-12-25T21:36:58.883Z,18.28
2022-12-25T21:42:01.067Z,18.21
2022-12-25T21:47:03.365Z,18.28
2022-12-25T21:52:08.535Z,18.28
2022-12-25T21:57:10.671Z,18.29
2022-12-25T22:02:12.970Z,18.30
2022-12-25T22:07:18.018Z,18.29
2022-12-25T22:12:41.597Z,18.28
2022-12-25T22:18:02.005Z,18.27
2022-12-25T22:23:04.756Z,18.27
2022-12-25T22:28:08.646Z,18.20
2022-12-25T22:33:10.516Z,18.23
2022-12-25T22:38:12.665Z,18.25
2022-12-25T22:43:14.794Z,18.26
2022-12-25T22:48:17.006Z,18.26
2022-12-25T22:53:19.476Z,18.29
2022-12-25T22:58:21.653Z,18.27
2022-12-25T23:03:23.832Z,18.25
2022-12-25T23:08:26.013Z,18.26
2022-12-25T23:13:46.459Z,18.25
2022-12-25T23:19:17.934Z,18.24
2022-12-25T23:24:38.690Z,18.24
2022-12-25T23:29:40.874Z,18.24
2022-12-25T23:34:45.120Z,18.25
2022-12-25T23:39:48.349Z,18.24
2022-12-25T23:44:50.461Z,18.25
2022-12-25T23:49:52.681Z,18.25
2022-12-25T23:54:54.812Z,18.26
2022-12-25T23:59:56.863Z,18.26
